createdAt,value
2019-02-02T00:01:02.075Z,125.73
2019-02-02T00:03:35.760Z,125.90
2019-02-02T00:06:09.354Z,124.17
2019-02-02T00:08:43.052Z,121.10
2019-02-02T00:11:16.740Z,142.60
2019-02-02T00:13:50.421Z,126.67
2019-02-02T00:16:24.261Z,119.97
2019-02-02T00:18:57.912Z,126.70
2019-02-02T00:21:31.651Z,127.57
2019-02-02T00:24:05.946Z,126.13
2019-02-02T00:26:39.592Z,130.03
2019-02-02T00:29:13.379Z,127.13
2019-02-02T00:31:46.957Z,123.73
2019-02-02T00:34:20.679Z,129.10
2019-02-02T00:36:54.352Z,128.97
2019-02-02T00:39:27.957Z,125.30
2019-02-02T00:42:01.555Z,119.33
2019-02-02T00:44:35.269Z,119.93
2019-02-02T00:47:08.912Z,121.40
2019-02-02T00:49:42.538Z,122.67
2019-02-02T00:52:16.265Z,118.87
2019-02-02T00:54:49.880Z,110.20
2019-02-02T00:57:23.660Z,112.67
2019-02-02T00:59:57.251Z,117.10
2019-02-02T01:02:30.949Z,108.83
2019-02-02T01:05:07.446Z,110.90
2019-02-02T01:07:41.239Z,108.43
2019-02-02T01:10:20.617Z,108.17
2019-02-02T01:12:54.418Z,97.43
2019-02-02T01:15:28.149Z,100.67
2019-02-02T01:18:01.843Z,105.20
2019-02-02T01:20:35.511Z,103.30
2019-02-02T01:23:09.209Z,98.80
2019-02-02T01:25:45.405Z,101.23
2019-02-02T01:28:19.051Z,104.90
2019-02-02T01:30:52.639Z,106.03
2019-02-02T01:33:26.305Z,101.60
2019-02-02T01:35:59.961Z,96.60
2019-02-02T01:38:33.759Z,98.13
2019-02-02T01:41:07.481Z,95.47
2019-02-02T01:43:41.123Z,96.67
2019-02-02T01:46:14.775Z,92.37
2019-02-02T01:48:48.461Z,91.43
2019-02-02T01:51:22.039Z,94.63
2019-02-02T01:53:55.682Z,95.87
2019-02-02T01:56:29.359Z,94.23
2019-02-02T01:59:03.041Z,89.80
2019-02-02T02:01:36.670Z,95.17
2019-02-02T02:04:10.346Z,89.10
2019-02-02T02:06:44.043Z,92.50
2019-02-02T02:09:17.706Z,90.30
2019-02-02T02:11:51.303Z,87.63
2019-02-02T02:14:24.945Z,89.23
2019-02-02T02:16:58.505Z,97.47
2019-02-02T02:19:32.121Z,87.03
2019-02-02T02:22:05.785Z,92.33
2019-02-02T02:24:39.402Z,82.57
2019-02-02T02:27:13.056Z,84.33
2019-02-02T02:29:46.725Z,86.70
2019-02-02T02:32:20.291Z,87.33
2019-02-02T02:34:53.899Z,90.27
2019-02-02T02:37:27.500Z,88.60
2019-02-02T02:40:01.111Z,90.00
2019-02-02T02:42:34.743Z,88.77
2019-02-02T02:45:10.897Z,96.03
2019-02-02T02:47:44.619Z,92.43
2019-02-02T02:50:20.207Z,86.17
2019-02-02T02:52:53.779Z,82.23
2019-02-02T02:55:27.407Z,86.70
2019-02-02T02:58:01.001Z,95.20
2019-02-02T03:00:34.631Z,85.20
2019-02-02T03:03:08.311Z,85.63
2019-02-02T03:05:41.999Z,85.23
2019-02-02T03:08:15.685Z,97.10
2019-02-02T03:10:49.386Z,90.90
2019-02-02T03:13:22.959Z,89.83
2019-02-02T03:15:56.617Z,90.77
2019-02-02T03:18:30.213Z,89.80
2019-02-02T03:21:03.911Z,95.57
2019-02-02T03:23:37.528Z,87.40
2019-02-02T03:26:11.241Z,93.53
2019-02-02T03:28:53.134Z,98.53
2019-02-02T03:31:20.133Z,92.63
2019-02-02T03:33:53.693Z,101.17
2019-02-02T03:36:27.436Z,87.47
2019-02-02T03:39:01.048Z,93.83
2019-02-02T03:41:34.719Z,90.37
2019-02-02T03:44:08.446Z,95.33
2019-02-02T03:46:42.119Z,94.40
2019-02-02T03:49:15.750Z,95.87
2019-02-02T03:51:49.395Z,93.87
2019-02-02T03:54:23.071Z,98.77
2019-02-02T03:56:56.656Z,104.23
2019-02-02T03:59:30.293Z,93.90
2019-02-02T04:02:03.952Z,93.10
2019-02-02T04:04:37.820Z,97.27
2019-02-02T04:07:11.413Z,95.13
2019-02-02T04:09:45.007Z,97.43
2019-02-02T04:12:18.678Z,105.03
2019-02-02T04:14:52.373Z,95.23
2019-02-02T04:17:25.957Z,94.10
2019-02-02T04:19:59.602Z,106.27
2019-02-02T04:22:35.677Z,101.37
2019-02-02T04:25:09.135Z,94.97
2019-02-02T04:27:42.738Z,101.23
2019-02-02T04:30:19.135Z,94.43
2019-02-02T04:32:52.873Z,91.70
2019-02-02T04:35:26.562Z,105.57
2019-02-02T04:38:00.153Z,95.90
2019-02-02T04:40:33.915Z,95.33
2019-02-02T04:43:07.507Z,99.50
2019-02-02T04:45:41.111Z,97.53
2019-02-02T04:48:14.705Z,98.10
2019-02-02T04:50:48.329Z,104.40
2019-02-02T04:53:21.911Z,92.73
2019-02-02T04:55:55.551Z,92.93
2019-02-02T04:58:29.245Z,91.20
2019-02-02T05:01:02.939Z,96.43
2019-02-02T05:03:36.531Z,88.07
2019-02-02T05:06:10.215Z,100.03
2019-02-02T05:08:43.878Z,92.03
2019-02-02T05:11:17.449Z,90.37
2019-02-02T05:13:51.048Z,82.20
2019-02-02T05:16:24.686Z,92.03
2019-02-02T05:18:58.275Z,87.47
2019-02-02T05:21:31.980Z,95.50
2019-02-02T05:24:05.573Z,89.20
2019-02-02T05:26:39.264Z,88.47
2019-02-02T05:29:12.862Z,85.93
2019-02-02T05:31:46.566Z,89.77
2019-02-02T05:34:20.172Z,77.27
2019-02-02T05:36:53.855Z,87.67
2019-02-02T05:39:27.512Z,89.23
2019-02-02T05:42:01.122Z,80.43
2019-02-02T05:44:34.759Z,84.33
2019-02-02T05:47:08.346Z,86.07
2019-02-02T05:49:41.983Z,91.50
2019-02-02T05:52:15.556Z,75.33
2019-02-02T05:54:49.210Z,82.33
2019-02-02T05:57:22.975Z,80.13
2019-02-02T05:59:56.661Z,77.00
2019-02-02T06:02:30.318Z,80.83
2019-02-02T06:05:04.924Z,76.73
2019-02-02T06:07:38.492Z,81.63
2019-02-02T06:10:15.254Z,79.97
2019-02-02T06:12:48.945Z,84.43
2019-02-02T06:15:22.578Z,104.83
2019-02-02T06:17:56.248Z,106.20
2019-02-02T06:20:29.876Z,108.07
2019-02-02T06:23:03.474Z,114.30
2019-02-02T06:25:37.183Z,112.97
2019-02-02T06:28:10.827Z,107.40
2019-02-02T06:30:44.492Z,95.17
2019-02-02T06:33:18.111Z,100.23
2019-02-02T06:35:51.790Z,100.47
2019-02-02T06:38:25.400Z,92.20
2019-02-02T06:40:58.985Z,80.93
2019-02-02T06:43:36.104Z,85.70
2019-02-02T06:46:09.682Z,84.07
2019-02-02T06:48:43.302Z,82.77
2019-02-02T06:51:17.048Z,77.30
2019-02-02T06:53:50.686Z,83.53
2019-02-02T06:56:24.274Z,85.27
2019-02-02T06:58:57.922Z,87.90
2019-02-02T07:01:31.568Z,87.33
2019-02-02T07:04:05.744Z,83.67
2019-02-02T07:06:39.381Z,84.40
2019-02-02T07:09:13.042Z,81.33
2019-02-02T07:11:46.689Z,85.37
2019-02-02T07:14:20.344Z,80.70
2019-02-02T07:16:54.280Z,86.60
2019-02-02T07:19:29.194Z,83.20
2019-02-02T07:22:04.120Z,87.87
2019-02-02T07:24:37.742Z,78.93
2019-02-02T07:27:11.499Z,80.57
2019-02-02T07:29:45.150Z,75.83
2019-02-02T07:32:18.804Z,81.37
2019-02-02T07:34:52.455Z,84.47
2019-02-02T07:37:26.095Z,82.93
2019-02-02T07:39:59.736Z,86.37
2019-02-02T07:42:33.387Z,83.10
2019-02-02T07:45:12.771Z,88.37
2019-02-02T07:47:46.414Z,87.83
2019-02-02T07:50:20.382Z,94.03
2019-02-02T07:52:54.259Z,91.87
2019-02-02T07:55:28.052Z,89.30
2019-02-02T07:58:01.710Z,85.67
2019-02-02T08:00:41.345Z,89.37
2019-02-02T08:03:12.563Z,92.43
2019-02-02T08:05:46.319Z,81.93
2019-02-02T08:08:19.930Z,86.80
2019-02-02T08:10:55.200Z,78.40
2019-02-02T08:13:29.416Z,81.33
2019-02-02T08:16:03.020Z,75.43
2019-02-02T08:18:36.720Z,79.50
2019-02-02T08:21:10.429Z,70.90
2019-02-02T08:23:44.024Z,68.00
2019-02-02T08:26:17.796Z,76.47
2019-02-02T08:28:51.392Z,69.83
2019-02-02T08:31:25.488Z,77.73
2019-02-02T08:33:59.141Z,70.93
2019-02-02T08:36:32.879Z,68.53
2019-02-02T08:39:08.544Z,69.70
2019-02-02T08:41:42.288Z,75.17
2019-02-02T08:44:15.930Z,70.30
2019-02-02T08:46:49.652Z,72.90
2019-02-02T08:49:23.398Z,74.40
2019-02-02T08:51:57.181Z,74.20
2019-02-02T08:54:30.765Z,72.57
2019-02-02T08:57:04.425Z,65.77
2019-02-02T08:59:38.114Z,65.77
2019-02-02T09:02:11.836Z,66.90
2019-02-02T09:04:45.485Z,67.50
2019-02-02T09:07:19.071Z,68.23
2019-02-02T09:09:52.693Z,69.43
2019-02-02T09:12:26.435Z,65.60
2019-02-02T09:15:00.337Z,68.20
2019-02-02T09:17:33.930Z,67.40
2019-02-02T09:20:10.206Z,68.23
2019-02-02T09:22:44.452Z,65.43
2019-02-02T09:25:19.313Z,67.90
2019-02-02T09:27:53.036Z,76.13
2019-02-02T09:30:35.007Z,78.20
2019-02-02T09:33:08.658Z,78.30
2019-02-02T09:35:42.296Z,77.47
2019-02-02T09:38:15.894Z,81.40
2019-02-02T09:40:49.682Z,79.70
2019-02-02T09:43:23.270Z,76.60
2019-02-02T09:45:56.967Z,83.23
2019-02-02T09:48:30.626Z,86.53
2019-02-02T09:51:04.621Z,80.70
2019-02-02T09:53:38.267Z,79.07
2019-02-02T09:56:12.019Z,85.67
2019-02-02T09:58:45.682Z,86.63
2019-02-02T10:01:27.462Z,83.53
2019-02-02T10:03:54.555Z,83.67
2019-02-02T10:06:28.251Z,80.10
2019-02-02T10:09:01.853Z,80.17
2019-02-02T10:11:35.474Z,82.27
2019-02-02T10:14:09.199Z,85.17
2019-02-02T10:16:42.800Z,77.77
2019-02-02T10:19:16.438Z,80.83
2019-02-02T10:21:50.152Z,78.53
2019-02-02T10:24:23.838Z,85.27
2019-02-02T10:26:57.448Z,84.10
2019-02-02T10:29:31.093Z,80.37
2019-02-02T10:32:04.696Z,74.60
2019-02-02T10:34:38.394Z,72.37
2019-02-02T10:37:11.991Z,77.50
2019-02-02T10:39:45.676Z,71.37
2019-02-02T10:42:19.199Z,66.70
2019-02-02T10:44:52.829Z,64.90
2019-02-02T10:47:26.429Z,69.00
2019-02-02T10:50:00.209Z,69.43
2019-02-02T10:52:33.871Z,70.13
2019-02-02T10:55:10.566Z,69.27
2019-02-02T10:57:44.344Z,71.73
2019-02-02T11:00:35.908Z,69.53
2019-02-02T11:03:09.571Z,79.13
2019-02-02T11:05:43.247Z,76.93
2019-02-02T11:08:16.772Z,74.23
2019-02-02T11:10:51.204Z,80.80
2019-02-02T11:13:25.001Z,86.17
2019-02-02T11:15:58.680Z,76.80
2019-02-02T11:18:32.623Z,75.43
2019-02-02T11:21:06.554Z,78.33
2019-02-02T11:23:40.375Z,76.67
2019-02-02T11:26:14.158Z,84.03
2019-02-02T11:28:47.902Z,81.87
2019-02-02T11:31:21.625Z,79.93
2019-02-02T11:33:55.274Z,81.37
2019-02-02T11:36:29.652Z,80.87
2019-02-02T11:39:03.909Z,71.23
2019-02-02T11:41:37.613Z,79.10
2019-02-02T11:44:11.195Z,87.87
2019-02-02T11:46:46.661Z,86.30
2019-02-02T11:49:20.320Z,95.67
2019-02-02T11:51:54.024Z,87.80
2019-02-02T11:54:27.601Z,96.87
2019-02-02T11:57:01.321Z,106.60
2019-02-02T11:59:34.965Z,115.70
2019-02-02T12:02:14.588Z,104.47
2019-02-02T12:04:44.075Z,113.77
2019-02-02T12:07:18.212Z,97.57
2019-02-02T12:09:51.867Z,99.67
2019-02-02T12:12:26.185Z,92.30
2019-02-02T12:14:59.774Z,89.37
2019-02-02T12:17:33.554Z,114.80
2019-02-02T12:20:10.693Z,112.77
2019-02-02T12:22:44.467Z,122.97
2019-02-02T12:25:18.171Z,108.73
2019-02-02T12:27:51.870Z,111.03
2019-02-02T12:30:34.357Z,101.10
2019-02-02T12:33:08.661Z,98.60
2019-02-02T12:35:42.431Z,90.50
2019-02-02T12:38:16.020Z,96.00
2019-02-02T12:40:49.725Z,84.07
2019-02-02T12:43:23.458Z,91.20
2019-02-02T12:45:57.092Z,91.30
2019-02-02T12:48:32.418Z,88.37
2019-02-02T12:51:06.197Z,93.53
2019-02-02T12:53:39.856Z,93.40
2019-02-02T12:56:13.495Z,104.17
2019-02-02T12:58:50.049Z,97.77
2019-02-02T13:01:22.437Z,100.07
2019-02-02T13:04:01.838Z,95.33
2019-02-02T13:06:31.469Z,92.20
2019-02-02T13:09:07.721Z,95.03
2019-02-02T13:11:41.431Z,95.00
2019-02-02T13:14:15.102Z,91.73
2019-02-02T13:16:50.210Z,93.83
2019-02-02T13:19:23.911Z,93.90
2019-02-02T13:21:57.576Z,97.77
2019-02-02T13:24:31.242Z,94.37
2019-02-02T13:27:04.948Z,100.80
2019-02-02T13:29:38.532Z,98.40
2019-02-02T13:32:12.320Z,90.67
2019-02-02T13:34:45.957Z,100.40
2019-02-02T13:37:19.585Z,96.20
2019-02-02T13:39:53.165Z,86.37
2019-02-02T13:42:26.791Z,82.60
2019-02-02T13:45:00.418Z,85.33
2019-02-02T13:47:34.040Z,82.50
2019-02-02T13:50:13.170Z,83.83
2019-02-02T13:52:48.149Z,83.50
2019-02-02T13:55:26.229Z,86.63
2019-02-02T13:57:59.873Z,90.63
2019-02-02T14:00:34.683Z,87.30
2019-02-02T14:03:08.276Z,91.07
2019-02-02T14:05:42.067Z,88.60
2019-02-02T14:08:15.667Z,89.40
2019-02-02T14:10:49.371Z,95.67
2019-02-02T14:13:23.033Z,86.90
2019-02-02T14:15:56.712Z,88.37
2019-02-02T14:18:30.292Z,91.50
2019-02-02T14:21:05.258Z,88.93
2019-02-02T14:23:39.077Z,83.27
2019-02-02T14:26:12.684Z,92.93
2019-02-02T14:28:46.352Z,83.83
2019-02-02T14:31:19.970Z,88.27
2019-02-02T14:33:53.583Z,90.30
2019-02-02T14:36:28.828Z,97.57
2019-02-02T14:39:02.563Z,91.93
2019-02-02T14:41:36.163Z,103.87
2019-02-02T14:44:09.901Z,104.67
2019-02-02T14:46:43.702Z,104.53
2019-02-02T14:49:17.605Z,92.83
2019-02-02T14:51:51.237Z,103.47
2019-02-02T14:54:24.904Z,99.20
2019-02-02T14:56:58.638Z,92.40
2019-02-02T14:59:32.222Z,92.67
2019-02-02T15:02:05.992Z,92.83
2019-02-02T15:04:39.671Z,98.97
2019-02-02T15:07:13.579Z,91.77
2019-02-02T15:09:47.182Z,99.53
2019-02-02T15:12:20.868Z,105.03
2019-02-02T15:14:54.585Z,104.33
2019-02-02T15:17:28.223Z,101.73
2019-02-02T15:20:01.857Z,96.17
2019-02-02T15:22:35.503Z,101.37
2019-02-02T15:25:09.412Z,98.07
2019-02-02T15:27:42.987Z,93.23
2019-02-02T15:30:19.046Z,90.57
2019-02-02T15:32:52.817Z,96.50
2019-02-02T15:35:26.661Z,94.37
2019-02-02T15:38:00.719Z,92.63
2019-02-02T15:40:34.493Z,98.13
2019-02-02T15:43:08.132Z,95.87
2019-02-02T15:45:41.718Z,100.73
2019-02-02T15:48:15.458Z,90.33
2019-02-02T15:50:49.022Z,94.57
2019-02-02T15:53:22.704Z,118.20
2019-02-02T15:55:57.669Z,102.57
2019-02-02T15:58:31.368Z,104.43
2019-02-02T16:01:05.508Z,111.73
2019-02-02T16:03:49.318Z,116.10
2019-02-02T16:06:15.061Z,120.43
2019-02-02T16:08:48.652Z,132.77
2019-02-02T16:11:22.299Z,151.80
2019-02-02T16:13:55.972Z,146.50
2019-02-02T16:16:29.639Z,135.83
2019-02-02T16:19:03.232Z,126.60
2019-02-02T16:21:36.870Z,118.80
2019-02-02T16:24:10.459Z,122.43
2019-02-02T16:26:44.147Z,126.03
2019-02-02T16:29:17.705Z,131.03
2019-02-02T16:31:51.333Z,132.03
2019-02-02T16:34:24.927Z,148.83
2019-02-02T16:36:58.637Z,155.00
2019-02-02T16:39:32.228Z,121.40
2019-02-02T16:42:05.955Z,129.30
2019-02-02T16:44:39.547Z,119.63
2019-02-02T16:47:13.231Z,115.43
2019-02-02T16:49:46.860Z,104.90
2019-02-02T16:52:20.448Z,104.17
2019-02-02T16:54:54.142Z,93.53
2019-02-02T16:57:27.740Z,97.07
2019-02-02T17:00:01.378Z,104.37
2019-02-02T17:02:35.065Z,100.43
2019-02-02T17:05:10.714Z,112.30
2019-02-02T17:07:46.280Z,102.93
2019-02-02T17:10:24.503Z,105.97
2019-02-02T17:12:58.293Z,104.40
2019-02-02T17:15:31.995Z,103.37
2019-02-02T17:18:06.325Z,98.10
2019-02-02T17:20:41.779Z,100.90
2019-02-02T17:23:15.488Z,109.93
2019-02-02T17:25:49.127Z,109.20
2019-02-02T17:28:22.726Z,101.30
2019-02-02T17:30:56.455Z,100.20
2019-02-02T17:33:30.095Z,100.50
2019-02-02T17:36:04.787Z,88.47
2019-02-02T17:38:38.418Z,96.53
2019-02-02T17:41:12.013Z,101.80
2019-02-02T17:43:45.645Z,85.70
2019-02-02T17:46:19.264Z,101.90
2019-02-02T17:48:52.897Z,93.83
2019-02-02T17:51:26.562Z,102.30
2019-02-02T17:54:00.198Z,103.10
2019-02-02T17:56:33.773Z,107.43
2019-02-02T17:59:07.584Z,118.20
2019-02-02T18:01:41.310Z,117.70
2019-02-02T18:04:14.948Z,108.13
2019-02-02T18:06:48.613Z,103.90
2019-02-02T18:09:22.261Z,112.60
2019-02-02T18:11:55.851Z,117.97
2019-02-02T18:14:29.478Z,99.00
2019-02-02T18:17:03.381Z,114.97
2019-02-02T18:19:36.980Z,118.27
2019-02-02T18:22:10.603Z,113.67
2019-02-02T18:24:44.211Z,103.07
2019-02-02T18:27:17.936Z,96.23
2019-02-02T18:29:51.572Z,92.13
2019-02-02T18:32:25.174Z,106.80
2019-02-02T18:34:58.817Z,93.20
2019-02-02T18:37:32.419Z,89.70
2019-02-02T18:40:09.571Z,92.30
2019-02-02T18:42:43.158Z,92.57
2019-02-02T18:45:20.329Z,91.23
2019-02-02T18:47:54.044Z,91.50
2019-02-02T18:50:27.866Z,91.30
2019-02-02T18:53:01.607Z,98.67
2019-02-02T18:55:40.981Z,88.67
2019-02-02T18:58:14.587Z,91.57
2019-02-02T19:00:48.243Z,92.93
2019-02-02T19:03:21.868Z,87.60
2019-02-02T19:05:55.470Z,86.03
2019-02-02T19:08:29.199Z,88.73
2019-02-02T19:11:03.689Z,86.03
2019-02-02T19:13:37.529Z,85.43
2019-02-02T19:16:11.188Z,93.20
2019-02-02T19:18:44.818Z,92.43
2019-02-02T19:21:18.489Z,92.63
2019-02-02T19:23:52.395Z,99.03
2019-02-02T19:26:25.999Z,107.30
2019-02-02T19:28:59.704Z,105.30
2019-02-02T19:31:33.301Z,117.03
2019-02-02T19:34:06.945Z,112.57
2019-02-02T19:36:40.703Z,110.43
2019-02-02T19:39:14.304Z,102.63
2019-02-02T19:41:47.897Z,106.43
2019-02-02T19:44:21.516Z,106.00
2019-02-02T19:46:55.109Z,94.47
2019-02-02T19:49:28.908Z,96.20
2019-02-02T19:52:02.601Z,101.90
2019-02-02T19:54:36.235Z,97.00
2019-02-02T19:57:09.903Z,96.70
2019-02-02T19:59:43.559Z,98.43
2019-02-02T20:02:17.914Z,105.07
2019-02-02T20:04:51.636Z,103.10
2019-02-02T20:07:25.307Z,113.87
2019-02-02T20:09:59.011Z,106.63
2019-02-02T20:12:33.851Z,115.13
2019-02-02T20:15:16.204Z,112.87
2019-02-02T20:17:50.004Z,112.50
2019-02-02T20:20:26.724Z,109.27
2019-02-02T20:23:01.942Z,101.77
2019-02-02T20:25:35.575Z,97.17
2019-02-02T20:28:09.347Z,92.97
2019-02-02T20:30:43.130Z,90.17
2019-02-02T20:33:19.785Z,95.57
2019-02-02T20:35:51.996Z,91.47
2019-02-02T20:38:25.717Z,99.07
2019-02-02T20:40:59.563Z,94.40
2019-02-02T20:43:33.208Z,92.90
2019-02-02T20:46:06.980Z,93.30
2019-02-02T20:48:40.635Z,92.47
2019-02-02T20:51:14.273Z,91.13
2019-02-02T20:53:48.021Z,91.13
2019-02-02T20:56:21.592Z,90.13
2019-02-02T20:58:55.302Z,94.07
2019-02-02T21:01:28.893Z,92.97
2019-02-02T21:04:02.799Z,89.67
2019-02-02T21:06:36.399Z,91.20
2019-02-02T21:09:10.164Z,93.47
2019-02-02T21:11:43.825Z,85.10
2019-02-02T21:14:17.470Z,87.90
2019-02-02T21:16:51.087Z,84.03
2019-02-02T21:19:24.690Z,88.23
2019-02-02T21:21:58.506Z,92.43
2019-02-02T21:24:32.156Z,93.13
2019-02-02T21:27:05.786Z,92.13
2019-02-02T21:29:39.501Z,94.47
2019-02-02T21:32:13.195Z,98.23
2019-02-02T21:34:46.773Z,99.37
2019-02-02T21:37:20.500Z,92.50
2019-02-02T21:39:54.080Z,95.97
2019-02-02T21:42:27.708Z,93.40
2019-02-02T21:45:01.383Z,90.17
2019-02-02T21:47:35.078Z,90.73
2019-02-02T21:50:11.960Z,92.10
2019-02-02T21:52:45.605Z,85.27
2019-02-02T21:55:21.032Z,88.50
2019-02-02T21:57:54.818Z,93.77
2019-02-02T22:00:31.499Z,89.80
2019-02-02T22:03:06.649Z,91.10
2019-02-02T22:05:40.245Z,98.20
2019-02-02T22:08:13.936Z,88.97
2019-02-02T22:10:47.802Z,90.13
2019-02-02T22:13:21.505Z,85.90
2019-02-02T22:15:55.245Z,85.77
2019-02-02T22:18:28.924Z,92.57
2019-02-02T22:21:02.617Z,86.53
2019-02-02T22:23:36.200Z,81.50
2019-02-02T22:26:10.314Z,89.17
2019-02-02T22:28:43.972Z,81.57
2019-02-02T22:31:17.637Z,85.63
2019-02-02T22:33:51.295Z,82.10
2019-02-02T22:36:27.641Z,92.70
2019-02-02T22:39:00.241Z,88.10
2019-02-02T22:41:33.877Z,89.10
2019-02-02T22:44:07.494Z,84.20
2019-02-02T22:46:41.111Z,87.63
2019-02-02T22:49:14.692Z,87.27
2019-02-02T22:51:48.375Z,86.10
2019-02-02T22:54:22.008Z,79.10
2019-02-02T22:56:55.604Z,77.90
2019-02-02T22:59:29.264Z,75.60
2019-02-02T23:02:03.295Z,76.57
2019-02-02T23:04:39.985Z,83.33
2019-02-02T23:07:16.699Z,82.70
2019-02-02T23:10:18.175Z,76.97
2019-02-02T23:13:00.541Z,86.13
2019-02-02T23:16:01.663Z,80.03
2019-02-02T23:18:35.445Z,71.03
2019-02-02T23:21:09.089Z,70.43
2019-02-02T23:23:42.692Z,77.87
2019-02-02T23:26:16.425Z,77.67
2019-02-02T23:28:50.171Z,81.77
2019-02-02T23:31:23.821Z,78.43
2019-02-02T23:33:57.437Z,85.27
2019-02-02T23:36:31.157Z,86.13
2019-02-02T23:39:07.520Z,94.53
2019-02-02T23:41:41.862Z,89.63
2019-02-02T23:44:15.462Z,86.37
2019-02-02T23:46:49.554Z,85.63
2019-02-02T23:49:23.111Z,80.97
2019-02-02T23:51:57.166Z,80.37
2019-02-02T23:54:30.822Z,81.20
2019-02-02T23:57:04.605Z,82.00
2019-02-02T23:59:39.255Z,71.73
